sensor_id;sensor_type;location;lat;lon;timestamp;pressure;altitude;pressure_sealevel;temperature;humidity
59787;BME280;45672;51.612;5.536;2023-04-01T00:01:43;98941.63;;;8.75;100.00
59787;BME280;45672;51.612;5.536;2023-04-01T00:04:08;98942.66;;;8.74;100.00
59787;BME280;45672;51.612;5.536;2023-04-01T00:06:33;98945.31;;;8.74;100.00
59787;BME280;45672;51.612;5.536;2023-04-01T00:08:59;98930.78;;;8.70;100.00
59787;BME280;45672;51.612;5.536;2023-04-01T00:11:24;98940.38;;;8.71;100.00
59787;BME280;45672;51.612;5.536;2023-04-01T00:13:52;98935.91;;;8.72;100.00
59787;BME280;45672;51.612;5.536;2023-04-01T00:16:17;98945.31;;;8.74;100.00
59787;BME280;45672;51.612;5.536;2023-04-01T00:18:43;98941.81;;;8.74;100.00
59787;BME280;45672;51.612;5.536;2023-04-01T00:21:08;98943.66;;;8.73;100.00
59787;BME280;45672;51.612;5.536;2023-04-01T00:23:33;98940.38;;;8.71;100.00
59787;BME280;45672;51.612;5.536;2023-04-01T00:26:00;98949.97;;;8.72;100.00
59787;BME280;45672;51.612;5.536;2023-04-01T00:28:26;98954.25;;;8.73;100.00
59787;BME280;45672;51.612;5.536;2023-04-01T00:30:51;98947.13;;;8.74;100.00
59787;BME280;45672;51.612;5.536;2023-04-01T00:33:17;98952.63;;;8.72;100.00
59787;BME280;45672;51.612;5.536;2023-04-01T00:35:42;98956.09;;;8.73;100.00
59787;BME280;45672;51.612;5.536;2023-04-01T00:38:08;98948.97;;;8.73;100.00
59787;BME280;45672;51.612;5.536;2023-04-01T00:40:37;98950.81;;;8.73;100.00
59787;BME280;45672;51.612;5.536;2023-04-01T00:43:12;98964.06;;;8.73;100.00
59787;BME280;45672;51.612;5.536;2023-04-01T00:45:40;98952.63;;;8.72;100.00
59787;BME280;45672;51.612;5.536;2023-04-01T00:48:10;98962.59;;;8.70;100.00
59787;BME280;45672;51.612;5.536;2023-04-01T00:50:37;98966.72;;;8.73;100.00
59787;BME280;45672;51.612;5.536;2023-04-01T00:53:05;98959.56;;;8.73;100.00
59787;BME280;45672;51.612;5.536;2023-04-01T00:55:34;98964.06;;;8.73;100.00
59787;BME280;45672;51.612;5.536;2023-04-01T00:58:02;98958.94;;;8.71;100.00
59787;BME280;45672;51.612;5.536;2023-04-01T01:00:30;98970.19;;;8.73;100.00
59787;BME280;45672;51.612;5.536;2023-04-01T01:02:56;98969.38;;;8.73;100.00
59787;BME280;45672;51.612;5.536;2023-04-01T01:05:30;98974.47;;;8.74;100.00
59787;BME280;45672;51.612;5.536;2023-04-01T01:08:08;98969.38;;;8.73;100.00
59787;BME280;45672;51.612;5.536;2023-04-01T01:10:39;98974.66;;;8.73;100.00
59787;BME280;45672;51.612;5.536;2023-04-01T01:13:18;98974.28;;;8.76;100.00
59787;BME280;45672;51.612;5.536;2023-04-01T01:15:48;98980.41;;;8.76;100.00
59787;BME280;45672;51.612;5.536;2023-04-01T01:18:38;98971.81;;;8.74;100.00
59787;BME280;45672;51.612;5.536;2023-04-01T01:23:52;98975.09;;;8.76;100.00
59787;BME280;45672;51.612;5.536;2023-04-01T01:26:40;98981.41;;;8.75;100.00
59787;BME280;45672;51.612;5.536;2023-04-01T01:32:13;98979.59;;;8.76;100.00
59787;BME280;45672;51.612;5.536;2023-04-01T01:37:38;98985.69;;;8.76;100.00
59787;BME280;45672;51.612;5.536;2023-04-01T01:40:07;98991.84;;;8.77;100.00
59787;BME280;45672;51.612;5.536;2023-04-01T01:42:37;98996.13;;;8.78;100.00
59787;BME280;45672;51.612;5.536;2023-04-01T01:45:04;98996.31;;;8.76;100.00
59787;BME280;45672;51.612;5.536;2023-04-01T01:47:32;98998.97;;;8.76;100.00
59787;BME280;45672;51.612;5.536;2023-04-01T01:49:59;99000.16;;;8.74;100.00
59787;BME280;45672;51.612;5.536;2023-04-01T01:52:27;99005.44;;;8.74;100.00
59787;BME280;45672;51.612;5.536;2023-04-01T01:54:55;99006.28;;;8.74;100.00
59787;BME280;45672;51.612;5.536;2023-04-01T01:57:28;99011.22;;;8.77;100.00
59787;BME280;45672;51.612;5.536;2023-04-01T01:59:58;99011.03;;;8.79;100.00
59787;BME280;45672;51.612;5.536;2023-04-01T02:02:26;99012.88;;;8.78;100.00
59787;BME280;45672;51.612;5.536;2023-04-01T02:04:52;99013.69;;;8.79;100.00
59787;BME280;45672;51.612;5.536;2023-04-01T02:07:25;99011.22;;;8.77;100.00
59787;BME280;45672;51.612;5.536;2023-04-01T02:09:52;99018.16;;;8.78;100.00
59787;BME280;45672;51.612;5.536;2023-04-01T02:12:19;99018.34;;;8.77;100.00
59787;BME280;45672;51.612;5.536;2023-04-01T02:14:51;99019.56;;;8.74;100.00
59787;BME280;45672;51.612;5.536;2023-04-01T02:17:19;99018.72;;;8.74;100.00
59787;BME280;45672;51.612;5.536;2023-04-01T02:19:57;99021.56;;;8.72;100.00
59787;BME280;45672;51.612;5.536;2023-04-01T02:22:27;99026.25;;;8.70;100.00
59787;BME280;45672;51.612;5.536;2023-04-01T02:24:57;99026.44;;;8.69;100.00
59787;BME280;45672;51.612;5.536;2023-04-01T02:27:24;99025.97;;;8.65;100.00
59787;BME280;45672;51.612;5.536;2023-04-01T02:29:50;99029.63;;;8.64;100.00
59787;BME280;45672;51.612;5.536;2023-04-01T02:32:17;99025.53;;;8.61;100.00
59787;BME280;45672;51.612;5.536;2023-04-01T02:34:44;99026.72;;;8.59;100.00
59787;BME280;45672;51.612;5.536;2023-04-01T02:37:11;99030.38;;;8.58;100.00
59787;BME280;45672;51.612;5.536;2023-04-01T02:39:37;99030.56;;;8.56;100.00
59787;BME280;45672;51.612;5.536;2023-04-01T02:42:02;99034.22;;;8.55;100.00
59787;BME280;45672;51.612;5.536;2023-04-01T02:44:28;99036.88;;;8.55;100.00
59787;BME280;45672;51.612;5.536;2023-04-01T02:46:53;99036.88;;;8.55;100.00
59787;BME280;45672;51.612;5.536;2023-04-01T02:49:18;99042.34;;;8.54;100.00
59787;BME280;45672;51.612;5.536;2023-04-01T02:51:44;99044.00;;;8.55;100.00
59787;BME280;45672;51.612;5.536;2023-04-01T02:54:09;99036.44;;;8.52;100.00
59787;BME280;45672;51.612;5.536;2023-04-01T02:56:34;99044.19;;;8.53;100.00
59787;BME280;45672;51.612;5.536;2023-04-01T02:59:00;99051.31;;;8.53;100.00
59787;BME280;45672;51.612;5.536;2023-04-01T03:01:25;99044.00;;;8.55;100.00
59787;BME280;45672;51.612;5.536;2023-04-01T03:03:50;99042.34;;;8.54;100.00
59787;BME280;45672;51.612;5.536;2023-04-01T03:06:16;99047.66;;;8.54;100.00
59787;BME280;45672;51.612;5.536;2023-04-01T03:08:43;99054.81;;;8.53;100.00
59787;BME280;45672;51.612;5.536;2023-04-01T03:11:09;99051.50;;;8.51;100.00
59787;BME280;45672;51.612;5.536;2023-04-01T03:13:35;99050.69;;;8.51;100.00
59787;BME280;45672;51.612;5.536;2023-04-01T03:16:00;99060.91;;;8.54;100.00
59787;BME280;45672;51.612;5.536;2023-04-01T03:18:26;99051.50;;;8.51;100.00
59787;BME280;45672;51.612;5.536;2023-04-01T03:20:51;99050.69;;;8.51;100.00
59787;BME280;45672;51.612;5.536;2023-04-01T03:23:16;99061.56;;;8.56;100.00
59787;BME280;45672;51.612;5.536;2023-04-01T03:25:44;99060.91;;;8.54;100.00
59787;BME280;45672;51.612;5.536;2023-04-01T03:28:10;99059.09;;;8.54;100.00
59787;BME280;45672;51.612;5.536;2023-04-01T03:30:35;99063.75;;;8.52;100.00
59787;BME280;45672;51.612;5.536;2023-04-01T03:33:01;99068.25;;;8.52;100.00
59787;BME280;45672;51.612;5.536;2023-04-01T03:35:27;99067.59;;;8.50;100.00
59787;BME280;45672;51.612;5.536;2023-04-01T03:37:53;99067.59;;;8.50;100.00
59787;BME280;45672;51.612;5.536;2023-04-01T03:40:20;99072.88;;;8.50;100.00
59787;BME280;45672;51.612;5.536;2023-04-01T03:42:45;99062.47;;;8.48;100.00
59787;BME280;45672;51.612;5.536;2023-04-01T03:45:11;99072.25;;;8.48;100.00
59787;BME280;45672;51.612;5.536;2023-04-01T03:47:37;99066.97;;;8.48;100.00
59787;BME280;45672;51.612;5.536;2023-04-01T03:50:04;99076.72;;;8.47;100.00
59787;BME280;45672;51.612;5.536;2023-04-01T03:52:30;99076.09;;;8.45;100.00
59787;BME280;45672;51.612;5.536;2023-04-01T03:54:55;99079.56;;;8.45;100.00
59787;BME280;45672;51.612;5.536;2023-04-01T03:57:20;99078.75;;;8.45;100.00
59787;BME280;45672;51.612;5.536;2023-04-01T03:59:46;99080.41;;;8.46;100.00
59787;BME280;45672;51.612;5.536;2023-04-01T04:02:11;99079.56;;;8.45;100.00
59787;BME280;45672;51.612;5.536;2023-04-01T04:04:36;99087.66;;;8.44;100.00
59787;BME280;45672;51.612;5.536;2023-04-01T04:07:02;99096.19;;;8.39;100.00
59787;BME280;45672;51.612;5.536;2023-04-01T04:09:27;99086.78;;;8.37;100.00
59787;BME280;45672;51.612;5.536;2023-04-01T04:11:54;99091.25;;;8.36;100.00
59787;BME280;45672;51.612;5.536;2023-04-01T04:14:20;99102.84;;;8.35;100.00
59787;BME280;45672;51.612;5.536;2023-04-01T04:16:45;99093.25;;;8.34;100.00
59787;BME280;45672;51.612;5.536;2023-04-01T04:19:10;99095.91;;;8.34;100.00
59787;BME280;45672;51.612;5.536;2023-04-01T04:21:35;99100.19;;;8.35;100.00
59787;BME280;45672;51.612;5.536;2023-04-01T04:24:01;99098.41;;;8.36;100.00
59787;BME280;45672;51.612;5.536;2023-04-01T04:26:27;99102.22;;;8.33;100.00
59787;BME280;45672;51.612;5.536;2023-04-01T04:28:54;99106.69;;;8.33;100.00
59787;BME280;45672;51.612;5.536;2023-04-01T04:31:20;99109.34;;;8.33;100.00
59787;BME280;45672;51.612;5.536;2023-04-01T04:33:46;99108.72;;;8.31;100.00
59787;BME280;45672;51.612;5.536;2023-04-01T04:36:13;99106.25;;;8.29;100.00
59787;BME280;45672;51.612;5.536;2023-04-01T04:38:39;99111.53;;;8.29;100.00
59787;BME280;45672;51.612;5.536;2023-04-01T04:41:12;99109.09;;;8.27;100.00
59787;BME280;45672;51.612;5.536;2023-04-01T04:43:38;99111.72;;;8.27;100.00
59787;BME280;45672;51.612;5.536;2023-04-01T04:46:08;99112.34;;;8.29;100.00
59787;BME280;45672;51.612;5.536;2023-04-01T04:48:34;99116.84;;;8.29;100.00
59787;BME280;45672;51.612;5.536;2023-04-01T04:50:59;99118.22;;;8.25;100.00
59787;BME280;45672;51.612;5.536;2023-04-01T04:53:26;99125.34;;;8.24;100.00
59787;BME280;45672;51.612;5.536;2023-04-01T04:55:51;99122.22;;;8.21;100.00
59787;BME280;45672;51.612;5.536;2023-04-01T04:58:17;99124.88;;;8.21;100.00
59787;BME280;45672;51.612;5.536;2023-04-01T05:00:43;99130.19;;;8.21;100.00
59787;BME280;45672;51.612;5.536;2023-04-01T05:03:09;99143.25;;;8.22;100.00
59787;BME280;45672;51.612;5.536;2023-04-01T05:05:35;99146.88;;;8.21;100.00
59787;BME280;45672;51.612;5.536;2023-04-01T05:08:00;99140.59;;;8.22;100.00
59787;BME280;45672;51.612;5.536;2023-04-01T05:10:26;99136.28;;;8.21;100.00
59787;BME280;45672;51.612;5.536;2023-04-01T05:12:51;99144.06;;;8.23;100.00
59787;BME280;45672;51.612;5.536;2023-04-01T05:15:16;99155.50;;;8.23;100.00
59787;BME280;45672;51.612;5.536;2023-04-01T05:17:42;99154.50;;;8.24;100.00
59787;BME280;45672;51.612;5.536;2023-04-01T05:20:07;99159.44;;;8.27;100.00
59787;BME280;45672;51.612;5.536;2023-04-01T05:22:33;99158.41;;;8.28;100.00
59787;BME280;45672;51.612;5.536;2023-04-01T05:24:58;99168.84;;;8.30;100.00
59787;BME280;45672;51.612;5.536;2023-04-01T05:27:24;99170.47;;;8.31;100.00
59787;BME280;45672;51.612;5.536;2023-04-01T05:29:49;99171.75;;;8.35;100.00
59787;BME280;45672;51.612;5.536;2023-04-01T05:32:15;99176.69;;;8.38;100.00
59787;BME280;45672;51.612;5.536;2023-04-01T05:34:40;99177.72;;;8.37;100.00
59787;BME280;45672;51.612;5.536;2023-04-01T05:37:05;99185.66;;;8.37;100.00
59787;BME280;45672;51.612;5.536;2023-04-01T05:39:36;99179.53;;;8.37;100.00
59787;BME280;45672;51.612;5.536;2023-04-01T05:42:01;99189.59;;;8.41;100.00
59787;BME280;45672;51.612;5.536;2023-04-01T05:44:26;99187.75;;;8.42;100.00
59787;BME280;45672;51.612;5.536;2023-04-01T05:46:52;99191.59;;;8.39;100.00
59787;BME280;45672;51.612;5.536;2023-04-01T05:49:17;99198.25;;;8.35;100.00
59787;BME280;45672;51.612;5.536;2023-04-01T05:51:42;99205.03;;;8.38;100.00
59787;BME280;45672;51.612;5.536;2023-04-01T05:54:08;99209.97;;;8.41;100.00
59787;BME280;45672;51.612;5.536;2023-04-01T05:56:33;99207.50;;;8.39;100.00
59787;BME280;45672;51.612;5.536;2023-04-01T05:58:58;99216.09;;;8.41;100.00
59787;BME280;45672;51.612;5.536;2023-04-01T06:01:24;99217.72;;;8.42;100.00
59787;BME280;45672;51.612;5.536;2023-04-01T06:03:49;99214.75;;;8.45;100.00
59787;BME280;45672;51.612;5.536;2023-04-01T06:06:24;99228.66;;;8.48;100.00
59787;BME280;45672;51.612;5.536;2023-04-01T06:08:52;99225.00;;;8.49;100.00
59787;BME280;45672;51.612;5.536;2023-04-01T06:13:58;99237.16;;;8.58;100.00
59787;BME280;45672;51.612;5.536;2023-04-01T06:16:49;99235.16;;;8.60;100.00
59787;BME280;45672;51.612;5.536;2023-04-01T06:19:27;99245.75;;;8.60;100.00
59787;BME280;45672;51.612;5.536;2023-04-01T06:22:17;99245.75;;;8.60;100.00
59787;BME280;45672;51.612;5.536;2023-04-01T06:27:46;99262.59;;;8.67;100.00
59787;BME280;45672;51.612;5.536;2023-04-01T06:30:41;99264.69;;;8.72;100.00
59787;BME280;45672;51.612;5.536;2023-04-01T06:33:15;99268.81;;;8.74;100.00
59787;BME280;45672;51.612;5.536;2023-04-01T06:41:24;99273.75;;;8.77;100.00
59787;BME280;45672;51.612;5.536;2023-04-01T06:46:57;99276.84;;;8.81;100.00
59787;BME280;45672;51.612;5.536;2023-04-01T06:49:44;99278.88;;;8.79;100.00
59787;BME280;45672;51.612;5.536;2023-04-01T06:52:25;99289.09;;;8.82;100.00
59787;BME280;45672;51.612;5.536;2023-04-01T06:54:57;99288.09;;;8.83;100.00
59787;BME280;45672;51.612;5.536;2023-04-01T06:57:31;99292.22;;;8.86;100.00
59787;BME280;45672;51.612;5.536;2023-04-01T06:59:59;99300.63;;;8.89;100.00
59787;BME280;45672;51.612;5.536;2023-04-01T07:02:34;99302.09;;;8.92;100.00
59787;BME280;45672;51.612;5.536;2023-04-01T07:05:04;99309.88;;;8.93;100.00
59787;BME280;45672;51.612;5.536;2023-04-01T07:07:36;99313.34;;;8.94;100.00
59787;BME280;45672;51.612;5.536;2023-04-01T07:10:09;99313.81;;;8.97;100.00
59787;BME280;45672;51.612;5.536;2023-04-01T07:13:00;99315.91;;;9.02;100.00
59787;BME280;45672;51.612;5.536;2023-04-01T07:15:30;99317.09;;;9.00;100.00
59787;BME280;45672;51.612;5.536;2023-04-01T07:18:03;99323.06;;;9.02;100.00
59787;BME280;45672;51.612;5.536;2023-04-01T07:20:32;99330.66;;;9.05;100.00
59787;BME280;45672;51.612;5.536;2023-04-01T07:23:00;99332.13;;;9.07;100.00
59787;BME280;45672;51.612;5.536;2023-04-01T07:25:31;99332.13;;;9.07;100.00
59787;BME280;45672;51.612;5.536;2023-04-01T07:28:06;99333.41;;;9.11;100.00
59787;BME280;45672;51.612;5.536;2023-04-01T07:39:08;99348.31;;;9.12;100.00
59787;BME280;45672;51.612;5.536;2023-04-01T07:41:51;99351.13;;;9.11;100.00
59787;BME280;45672;51.612;5.536;2023-04-01T07:47:07;99367.16;;;9.18;100.00
59787;BME280;45672;51.612;5.536;2023-04-01T07:55:24;99366.06;;;9.42;100.00
59787;BME280;45672;51.612;5.536;2023-04-01T07:58:35;99385.84;;;9.54;100.00
59787;BME280;45672;51.612;5.536;2023-04-01T08:06:47;99394.41;;;9.56;100.00
59787;BME280;45672;51.612;5.536;2023-04-01T08:12:17;99388.13;;;9.42;100.00
59787;BME280;45672;51.612;5.536;2023-04-01T08:23:16;99410.38;;;9.41;100.00
59787;BME280;45672;51.612;5.536;2023-04-01T08:25:48;99415.31;;;9.44;100.00
59787;BME280;45672;51.612;5.536;2023-04-01T08:31:09;99420.34;;;9.54;100.00
59787;BME280;45672;51.612;5.536;2023-04-01T08:33:36;99427.84;;;9.51;100.00
59787;BME280;45672;51.612;5.536;2023-04-01T08:36:08;99431.97;;;9.53;100.00
59787;BME280;45672;51.612;5.536;2023-04-01T08:41:00;99426.56;;;9.61;100.00
59787;BME280;45672;51.612;5.536;2023-04-01T08:46:30;99450.19;;;9.71;100.00
59787;BME280;45672;51.612;5.536;2023-04-01T08:49:04;99447.97;;;9.75;100.00
59787;BME280;45672;51.612;5.536;2023-04-01T09:04:21;99472.44;;;9.70;100.00
59787;BME280;45672;51.612;5.536;2023-04-01T09:19:59;99500.66;;;9.71;100.00
59787;BME280;45672;51.612;5.536;2023-04-01T09:25:02;99507.25;;;9.75;100.00
59787;BME280;45672;51.612;5.536;2023-04-01T09:27:54;99499.28;;;9.75;100.00
59787;BME280;45672;51.612;5.536;2023-04-01T09:30:25;99509.91;;;9.75;100.00
59787;BME280;45672;51.612;5.536;2023-04-01T09:33:09;99514.31;;;9.83;100.00
59787;BME280;45672;51.612;5.536;2023-04-01T09:38:19;99523.13;;;9.83;100.00
59787;BME280;45672;51.612;5.536;2023-04-01T09:45:52;99530.16;;;9.91;100.00
59787;BME280;45672;51.612;5.536;2023-04-01T09:48:27;99535.19;;;10.01;100.00
59787;BME280;45672;51.612;5.536;2023-04-01T09:51:17;99528.72;;;10.04;100.00
59787;BME280;45672;51.612;5.536;2023-04-01T10:09:44;99549.56;;;10.22;100.00
59787;BME280;45672;51.612;5.536;2023-04-01T10:20:16;99568.44;;;10.57;100.00
59787;BME280;45672;51.612;5.536;2023-04-01T10:41:27;99576.84;;;10.75;100.00
59787;BME280;45672;51.612;5.536;2023-04-01T11:05:05;99612.66;;;10.43;100.00
59787;BME280;45672;51.612;5.536;2023-04-01T11:18:24;99606.25;;;10.52;100.00
59787;BME280;45672;51.612;5.536;2023-04-01T11:20:59;99616.97;;;10.44;100.00
59787;BME280;45672;51.612;5.536;2023-04-01T11:23:42;99617.06;;;10.35;100.00
59787;BME280;45672;51.612;5.536;2023-04-01T11:29:09;99626.75;;;10.28;100.00
59787;BME280;45672;51.612;5.536;2023-04-01T11:31:47;99632.63;;;10.24;100.00
59787;BME280;45672;51.612;5.536;2023-04-01T11:34:20;99629.59;;;10.27;100.00
59787;BME280;45672;51.612;5.536;2023-04-01T11:44:54;99640.78;;;10.67;100.00
59787;BME280;45672;51.612;5.536;2023-04-01T11:50:12;99646.50;;;10.79;100.00
59787;BME280;45672;51.612;5.536;2023-04-01T12:10:53;99676.75;;;10.78;100.00
59787;BME280;45672;51.612;5.536;2023-04-01T12:16:08;99684.16;;;10.97;100.00
59787;BME280;45672;51.612;5.536;2023-04-01T12:21:13;99689.69;;;10.81;100.00
59787;BME280;45672;51.612;5.536;2023-04-01T12:24:01;99691.16;;;10.83;100.00
59787;BME280;45672;51.612;5.536;2023-04-01T12:26:43;99688.50;;;10.83;100.00
59787;BME280;45672;51.612;5.536;2023-04-01T12:34:33;99706.22;;;10.76;100.00
59787;BME280;45672;51.612;5.536;2023-04-01T12:50:01;99723.19;;;10.75;100.00
59787;BME280;45672;51.612;5.536;2023-04-01T12:55:04;99722.44;;;10.66;100.00
59787;BME280;45672;51.612;5.536;2023-04-01T13:10:38;99734.47;;;10.62;100.00
59787;BME280;45672;51.612;5.536;2023-04-01T13:13:26;99745.53;;;10.66;100.00
59787;BME280;45672;51.612;5.536;2023-04-01T13:16:11;99750.41;;;10.62;100.00
59787;BME280;45672;51.612;5.536;2023-04-01T13:18:50;99749.59;;;10.62;100.00
59787;BME280;45672;51.612;5.536;2023-04-01T13:34:36;99765.19;;;10.65;100.00
59787;BME280;45672;51.612;5.536;2023-04-01T13:39:57;99766.75;;;10.74;100.00
59787;BME280;45672;51.612;5.536;2023-04-01T13:42:35;99778.75;;;10.70;100.00
59787;BME280;45672;51.612;5.536;2023-04-01T13:45:13;99782.78;;;10.66;100.00
59787;BME280;45672;51.612;5.536;2023-04-01T13:50:07;99787.09;;;10.67;100.00
59787;BME280;45672;51.612;5.536;2023-04-01T13:55:28;99786.84;;;10.62;100.00
59787;BME280;45672;51.612;5.536;2023-04-01T14:11:02;99809.09;;;10.99;100.00
59787;BME280;45672;51.612;5.536;2023-04-01T14:13:33;99810.72;;;11.00;100.00
59787;BME280;45672;51.612;5.536;2023-04-01T14:21:29;99821.09;;;10.95;100.00
59787;BME280;45672;51.612;5.536;2023-04-01T14:26:50;99818.97;;;10.90;100.00
59787;BME280;45672;51.612;5.536;2023-04-01T14:29:29;99820.00;;;10.89;100.00
59787;BME280;45672;51.612;5.536;2023-04-01T14:34:40;99823.56;;;10.96;100.00
59787;BME280;45672;51.612;5.536;2023-04-01T14:37:23;99829.81;;;11.03;100.00
59787;BME280;45672;51.612;5.536;2023-04-01T14:40:12;99833.47;;;11.02;100.00
59787;BME280;45672;51.612;5.536;2023-04-01T14:45:29;99836.63;;;11.06;100.00
59787;BME280;45672;51.612;5.536;2023-04-01T14:48:01;99839.28;;;11.06;100.00
59787;BME280;45672;51.612;5.536;2023-04-01T14:50:40;99842.31;;;11.03;100.00
59787;BME280;45672;51.612;5.536;2023-04-01T14:55:34;99849.94;;;11.06;100.00
59787;BME280;45672;51.612;5.536;2023-04-01T15:03:12;99852.97;;;11.03;100.00
59787;BME280;45672;51.612;5.536;2023-04-01T15:05:49;99852.97;;;11.03;100.00
59787;BME280;45672;51.612;5.536;2023-04-01T15:08:29;99856.88;;;11.07;100.00
59787;BME280;45672;51.612;5.536;2023-04-01T15:11:14;99862.06;;;11.09;100.00
59787;BME280;45672;51.612;5.536;2023-04-01T15:31:16;99890.56;;;11.00;100.00
59787;BME280;45672;51.612;5.536;2023-04-01T15:33:49;99890.56;;;11.00;100.00
59787;BME280;45672;51.612;5.536;2023-04-01T15:39:17;99902.13;;;10.92;100.00
59787;BME280;45672;51.612;5.536;2023-04-01T15:47:07;99901.81;;;10.87;100.00
59787;BME280;45672;51.612;5.536;2023-04-01T15:49:43;99907.50;;;10.84;100.00
59787;BME280;45672;51.612;5.536;2023-04-01T15:52:22;99907.06;;;10.80;100.00
59787;BME280;45672;51.612;5.536;2023-04-01T15:54:55;99902.06;;;10.77;100.00
59787;BME280;45672;51.612;5.536;2023-04-01T16:05:05;99919.72;;;10.55;100.00
59787;BME280;45672;51.612;5.536;2023-04-01T16:28:05;99932.63;;;10.43;100.00
59787;BME280;45672;51.612;5.536;2023-04-01T16:30:40;99932.63;;;10.43;100.00
59787;BME280;45672;51.612;5.536;2023-04-01T16:35:55;99944.88;;;10.44;100.00
59787;BME280;45672;51.612;5.536;2023-04-01T16:38:26;99951.38;;;10.42;100.00
59787;BME280;45672;51.612;5.536;2023-04-01T16:43:30;99945.59;;;10.38;100.00
59787;BME280;45672;51.612;5.536;2023-04-01T16:51:17;99973.88;;;10.39;100.00
59787;BME280;45672;51.612;5.536;2023-04-01T16:54:04;99988.28;;;10.45;100.00
59787;BME280;45672;51.612;5.536;2023-04-01T16:56:39;99989.09;;;10.45;100.00
59787;BME280;45672;51.612;5.536;2023-04-01T17:01:36;99999.25;;;10.42;100.00
59787;BME280;45672;51.612;5.536;2023-04-01T17:04:23;100003.75;;;10.41;100.00
59787;BME280;45672;51.612;5.536;2023-04-01T17:06:53;100001.69;;;10.51;100.00
59787;BME280;45672;51.612;5.536;2023-04-01T17:09:44;100008.72;;;10.44;100.00
59787;BME280;45672;51.612;5.536;2023-04-01T17:17:42;100041.34;;;10.30;100.00
59787;BME280;45672;51.612;5.536;2023-04-01T17:27:59;100058.63;;;10.26;100.00
59787;BME280;45672;51.612;5.536;2023-04-01T17:45:57;100099.72;;;10.15;100.00
59787;BME280;45672;51.612;5.536;2023-04-01T17:53:45;100112.53;;;9.95;100.00
59787;BME280;45672;51.612;5.536;2023-04-01T18:04:46;100131.31;;;10.01;100.00
59787;BME280;45672;51.612;5.536;2023-04-01T18:12:43;100145.78;;;9.91;100.00
59787;BME280;45672;51.612;5.536;2023-04-01T18:21:12;100172.88;;;9.78;100.00
59787;BME280;45672;51.612;5.536;2023-04-01T18:23:27;100178.84;;;9.88;100.00
59787;BME280;45672;51.612;5.536;2023-04-01T18:25:55;100180.50;;;9.81;100.00
59787;BME280;45672;51.612;5.536;2023-04-01T18:33:41;100207.88;;;9.65;100.00
59787;BME280;45672;51.612;5.536;2023-04-01T18:38:40;100217.50;;;9.58;100.00
59787;BME280;45672;51.612;5.536;2023-04-01T18:41:14;100227.78;;;9.53;100.00
59787;BME280;45672;51.612;5.536;2023-04-01T18:46:27;100240.06;;;9.45;100.00
59787;BME280;45672;51.612;5.536;2023-04-01T18:49:06;100248.50;;;9.32;100.00
59787;BME280;45672;51.612;5.536;2023-04-01T18:54:27;100269.41;;;9.36;100.00
59787;BME280;45672;51.612;5.536;2023-04-01T18:57:01;100273.56;;;9.38;100.00
59787;BME280;45672;51.612;5.536;2023-04-01T18:59:40;100272.56;;;9.31;100.00
59787;BME280;45672;51.612;5.536;2023-04-01T19:02:16;100274.69;;;9.27;100.00
59787;BME280;45672;51.612;5.536;2023-04-01T19:09:50;100300.16;;;9.12;100.00
59787;BME280;45672;51.612;5.536;2023-04-01T19:12:31;100304.38;;;9.23;100.00
59787;BME280;45672;51.612;5.536;2023-04-01T19:25:38;100344.81;;;9.17;100.00
59787;BME280;45672;51.612;5.536;2023-04-01T19:35:55;100362.06;;;9.12;100.00
59787;BME280;45672;51.612;5.536;2023-04-01T19:38:37;100366.63;;;9.02;100.00
59787;BME280;45672;51.612;5.536;2023-04-01T19:41:09;100364.66;;;9.04;100.00
59787;BME280;45672;51.612;5.536;2023-04-01T19:49:02;100375.88;;;8.98;100.00
59787;BME280;45672;51.612;5.536;2023-04-01T19:57:30;100388.88;;;9.01;100.00
59787;BME280;45672;51.612;5.536;2023-04-01T20:02:25;100407.69;;;8.90;100.00
59787;BME280;45672;51.612;5.536;2023-04-01T20:04:53;100411.78;;;8.84;100.00
59787;BME280;45672;51.612;5.536;2023-04-01T20:09:54;100423.91;;;8.87;100.00
59787;BME280;45672;51.612;5.536;2023-04-01T20:12:32;100430.56;;;8.91;100.00
59787;BME280;45672;51.612;5.536;2023-04-01T20:15:00;100448.94;;;8.66;100.00
59787;BME280;45672;51.612;5.536;2023-04-01T20:20:03;100448.34;;;8.54;100.00
59787;BME280;45672;51.612;5.536;2023-04-01T20:28:02;100464.44;;;8.43;100.00
59787;BME280;45672;51.612;5.536;2023-04-01T20:30:49;100478.44;;;8.35;100.00
59787;BME280;45672;51.612;5.536;2023-04-01T20:35:44;100481.53;;;8.31;100.00
59787;BME280;45672;51.612;5.536;2023-04-01T20:41:40;100496.41;;;8.41;100.00
59787;BME280;45672;51.612;5.536;2023-04-01T20:43:49;100497.25;;;8.14;100.00
59787;BME280;45672;51.612;5.536;2023-04-01T20:46:22;100500.16;;;8.21;100.00
59787;BME280;45672;51.612;5.536;2023-04-01T20:51:38;100509.28;;;8.08;100.00
59787;BME280;45672;51.612;5.536;2023-04-01T20:54:13;100509.53;;;8.15;100.00
59787;BME280;45672;51.612;5.536;2023-04-01T21:02:10;100530.91;;;8.04;100.00
59787;BME280;45672;51.612;5.536;2023-04-01T21:07:28;100547.09;;;8.28;100.00
59787;BME280;45672;51.612;5.536;2023-04-01T21:13:00;100561.75;;;8.05;100.00
59787;BME280;45672;51.612;5.536;2023-04-01T21:15:33;100554.94;;;7.92;100.00
59787;BME280;45672;51.612;5.536;2023-04-01T21:18:13;100568.19;;;7.92;100.00
59787;BME280;45672;51.612;5.536;2023-04-01T21:20:52;100577.53;;;7.87;100.00
59787;BME280;45672;51.612;5.536;2023-04-01T21:33:51;100607.50;;;7.87;100.00
59787;BME280;45672;51.612;5.536;2023-04-01T21:36:40;100605.72;;;7.88;100.00
59787;BME280;45672;51.612;5.536;2023-04-01T21:39:18;100612.25;;;7.93;100.00
59787;BME280;45672;51.612;5.536;2023-04-01T21:42:05;100616.16;;;7.89;100.00
59787;BME280;45672;51.612;5.536;2023-04-01T21:44:49;100629.00;;;7.74;100.00
59787;BME280;45672;51.612;5.536;2023-04-01T21:50:09;100629.28;;;7.71;100.00
59787;BME280;45672;51.612;5.536;2023-04-01T21:52:55;100640.69;;;7.82;100.00